sensor_id;sensor_type;location;lat;lon;timestamp;P1;durP1;ratioP1;P2;durP2;ratioP2
24635;SDS011;12772;49.794;10.024;2023-03-19T00:03:18;8.27;;;7.47;;
24635;SDS011;12772;49.794;10.024;2023-03-19T00:07:20;7.30;;;6.50;;
24635;SDS011;12772;49.794;10.024;2023-03-19T00:11:22;7.68;;;6.88;;
24635;SDS011;12772;49.794;10.024;2023-03-19T00:15:25;9.48;;;7.35;;
24635;SDS011;12772;49.794;10.024;2023-03-19T00:19:27;9.32;;;8.07;;
24635;SDS011;12772;49.794;10.024;2023-03-19T00:23:29;9.88;;;6.65;;
24635;SDS011;12772;49.794;10.024;2023-03-19T00:27:31;7.10;;;5.63;;
24635;SDS011;12772;49.794;10.024;2023-03-19T00:31:33;7.55;;;4.88;;
24635;SDS011;12772;49.794;10.024;2023-03-19T00:35:37;7.18;;;6.32;;
24635;SDS011;12772;49.794;10.024;2023-03-19T00:39:40;7.57;;;5.68;;
24635;SDS011;12772;49.794;10.024;2023-03-19T00:43:42;6.22;;;5.20;;
24635;SDS011;12772;49.794;10.024;2023-03-19T00:47:44;8.43;;;5.63;;
24635;SDS011;12772;49.794;10.024;2023-03-19T00:51:46;7.03;;;5.75;;
24635;SDS011;12772;49.794;10.024;2023-03-19T00:55:49;7.30;;;6.15;;
24635;SDS011;12772;49.794;10.024;2023-03-19T00:59:51;7.32;;;6.03;;
24635;SDS011;12772;49.794;10.024;2023-03-19T01:03:53;6.88;;;5.60;;
24635;SDS011;12772;49.794;10.024;2023-03-19T01:07:55;6.38;;;5.30;;
24635;SDS011;12772;49.794;10.024;2023-03-19T01:11:57;6.35;;;5.10;;
24635;SDS011;12772;49.794;10.024;2023-03-19T01:16:03;6.05;;;5.45;;
24635;SDS011;12772;49.794;10.024;2023-03-19T01:20:05;6.28;;;5.13;;
24635;SDS011;12772;49.794;10.024;2023-03-19T01:24:12;7.30;;;5.00;;
24635;SDS011;12772;49.794;10.024;2023-03-19T01:28:14;5.55;;;4.68;;
24635;SDS011;12772;49.794;10.024;2023-03-19T01:32:16;5.57;;;4.40;;
24635;SDS011;12772;49.794;10.024;2023-03-19T01:36:18;5.03;;;4.53;;
24635;SDS011;12772;49.794;10.024;2023-03-19T01:40:20;5.22;;;4.72;;
24635;SDS011;12772;49.794;10.024;2023-03-19T01:44:26;6.40;;;4.97;;
24635;SDS011;12772;49.794;10.024;2023-03-19T01:48:38;6.10;;;5.07;;
24635;SDS011;12772;49.794;10.024;2023-03-19T01:52:46;6.30;;;5.10;;
24635;SDS011;12772;49.794;10.024;2023-03-19T01:56:50;6.85;;;5.68;;
24635;SDS011;12772;49.794;10.024;2023-03-19T02:00:55;6.40;;;5.53;;
24635;SDS011;12772;49.794;10.024;2023-03-19T02:05:11;6.10;;;5.43;;
24635;SDS011;12772;49.794;10.024;2023-03-19T02:09:23;7.43;;;5.80;;
24635;SDS011;12772;49.794;10.024;2023-03-19T02:13:26;8.77;;;5.97;;
24635;SDS011;12772;49.794;10.024;2023-03-19T02:17:29;7.22;;;6.13;;
24635;SDS011;12772;49.794;10.024;2023-03-19T02:21:34;6.50;;;5.38;;
24635;SDS011;12772;49.794;10.024;2023-03-19T02:29:47;6.80;;;5.72;;
24635;SDS011;12772;49.794;10.024;2023-03-19T02:33:59;7.30;;;5.25;;
24635;SDS011;12772;49.794;10.024;2023-03-19T02:38:01;9.80;;;5.75;;
24635;SDS011;12772;49.794;10.024;2023-03-19T02:42:05;6.03;;;5.43;;
24635;SDS011;12772;49.794;10.024;2023-03-19T02:46:11;6.78;;;6.10;;
24635;SDS011;12772;49.794;10.024;2023-03-19T02:50:13;7.00;;;5.40;;
24635;SDS011;12772;49.794;10.024;2023-03-19T02:54:16;7.70;;;5.78;;
24635;SDS011;12772;49.794;10.024;2023-03-19T02:58:18;8.68;;;6.05;;
24635;SDS011;12772;49.794;10.024;2023-03-19T03:02:20;7.13;;;5.88;;
24635;SDS011;12772;49.794;10.024;2023-03-19T03:06:22;7.88;;;5.70;;
24635;SDS011;12772;49.794;10.024;2023-03-19T03:10:24;8.75;;;5.95;;
24635;SDS011;12772;49.794;10.024;2023-03-19T03:14:26;6.75;;;5.97;;
24635;SDS011;12772;49.794;10.024;2023-03-19T03:18:29;6.57;;;5.97;;
24635;SDS011;12772;49.794;10.024;2023-03-19T03:22:31;6.50;;;5.78;;
24635;SDS011;12772;49.794;10.024;2023-03-19T03:26:33;7.05;;;6.32;;
24635;SDS011;12772;49.794;10.024;2023-03-19T03:30:38;6.00;;;5.40;;
24635;SDS011;12772;49.794;10.024;2023-03-19T03:34:40;7.05;;;5.72;;
24635;SDS011;12772;49.794;10.024;2023-03-19T03:38:42;6.65;;;5.95;;
24635;SDS011;12772;49.794;10.024;2023-03-19T03:42:44;7.80;;;6.45;;
24635;SDS011;12772;49.794;10.024;2023-03-19T03:46:47;9.88;;;6.40;;
24635;SDS011;12772;49.794;10.024;2023-03-19T03:50:49;6.38;;;5.72;;
24635;SDS011;12772;49.794;10.024;2023-03-19T03:54:51;7.20;;;5.72;;
24635;SDS011;12772;49.794;10.024;2023-03-19T03:58:53;8.88;;;7.93;;
24635;SDS011;12772;49.794;10.024;2023-03-19T04:02:57;7.18;;;6.50;;
24635;SDS011;12772;49.794;10.024;2023-03-19T04:06:59;7.60;;;6.80;;
24635;SDS011;12772;49.794;10.024;2023-03-19T04:11:05;7.18;;;6.38;;
24635;SDS011;12772;49.794;10.024;2023-03-19T04:15:08;8.85;;;6.50;;
24635;SDS011;12772;49.794;10.024;2023-03-19T04:19:11;6.35;;;5.82;;
24635;SDS011;12772;49.794;10.024;2023-03-19T04:23:13;8.82;;;6.93;;
24635;SDS011;12772;49.794;10.024;2023-03-19T04:27:16;7.30;;;6.50;;
24635;SDS011;12772;49.794;10.024;2023-03-19T04:31:18;7.68;;;6.93;;
24635;SDS011;12772;49.794;10.024;2023-03-19T04:35:20;6.22;;;5.63;;
24635;SDS011;12772;49.794;10.024;2023-03-19T04:39:22;6.22;;;5.63;;
24635;SDS011;12772;49.794;10.024;2023-03-19T04:43:25;7.03;;;6.20;;
24635;SDS011;12772;49.794;10.024;2023-03-19T04:47:27;6.47;;;5.88;;
24635;SDS011;12772;49.794;10.024;2023-03-19T04:51:29;6.30;;;5.65;;
24635;SDS011;12772;49.794;10.024;2023-03-19T04:55:31;6.60;;;6.00;;
24635;SDS011;12772;49.794;10.024;2023-03-19T04:59:33;6.93;;;6.25;;
24635;SDS011;12772;49.794;10.024;2023-03-19T05:03:35;6.97;;;6.30;;
24635;SDS011;12772;49.794;10.024;2023-03-19T05:07:37;6.80;;;5.68;;
24635;SDS011;12772;49.794;10.024;2023-03-19T05:11:40;6.05;;;5.50;;
24635;SDS011;12772;49.794;10.024;2023-03-19T05:15:43;6.38;;;5.75;;
24635;SDS011;12772;49.794;10.024;2023-03-19T05:19:45;5.97;;;5.10;;
24635;SDS011;12772;49.794;10.024;2023-03-19T05:23:47;6.28;;;4.90;;
24635;SDS011;12772;49.794;10.024;2023-03-19T05:27:51;4.25;;;3.85;;
24635;SDS011;12772;49.794;10.024;2023-03-19T05:31:54;5.35;;;4.30;;
24635;SDS011;12772;49.794;10.024;2023-03-19T05:35:56;4.38;;;3.97;;
24635;SDS011;12772;49.794;10.024;2023-03-19T05:39:58;4.53;;;3.67;;
24635;SDS011;12772;49.794;10.024;2023-03-19T05:44:00;4.30;;;3.90;;
24635;SDS011;12772;49.794;10.024;2023-03-19T05:48:02;5.90;;;3.60;;
24635;SDS011;12772;49.794;10.024;2023-03-19T05:52:05;6.57;;;4.05;;
24635;SDS011;12772;49.794;10.024;2023-03-19T05:56:08;5.97;;;3.50;;
24635;SDS011;12772;49.794;10.024;2023-03-19T06:00:11;5.05;;;3.72;;
24635;SDS011;12772;49.794;10.024;2023-03-19T06:04:14;6.90;;;3.65;;
24635;SDS011;12772;49.794;10.024;2023-03-19T06:08:16;4.07;;;3.15;;
24635;SDS011;12772;49.794;10.024;2023-03-19T06:12:18;4.95;;;3.25;;
24635;SDS011;12772;49.794;10.024;2023-03-19T06:16:21;3.38;;;3.08;;
24635;SDS011;12772;49.794;10.024;2023-03-19T06:20:23;3.40;;;3.03;;
24635;SDS011;12772;49.794;10.024;2023-03-19T06:24:25;5.15;;;3.88;;
24635;SDS011;12772;49.794;10.024;2023-03-19T06:28:29;3.10;;;2.90;;
24635;SDS011;12772;49.794;10.024;2023-03-19T06:32:32;5.38;;;3.00;;
24635;SDS011;12772;49.794;10.024;2023-03-19T06:36:35;3.38;;;3.08;;
24635;SDS011;12772;49.794;10.024;2023-03-19T06:40:37;5.00;;;3.13;;
24635;SDS011;12772;49.794;10.024;2023-03-19T06:44:39;4.63;;;4.22;;
24635;SDS011;12772;49.794;10.024;2023-03-19T06:48:42;3.55;;;3.25;;
24635;SDS011;12772;49.794;10.024;2023-03-19T06:52:45;4.00;;;2.80;;
24635;SDS011;12772;49.794;10.024;2023-03-19T06:56:48;4.82;;;2.88;;
24635;SDS011;12772;49.794;10.024;2023-03-19T07:00:51;7.40;;;3.10;;
24635;SDS011;12772;49.794;10.024;2023-03-19T07:04:53;4.15;;;2.83;;
24635;SDS011;12772;49.794;10.024;2023-03-19T07:08:55;3.28;;;2.75;;
24635;SDS011;12772;49.794;10.024;2023-03-19T07:12:58;3.17;;;2.90;;
24635;SDS011;12772;49.794;10.024;2023-03-19T07:17:00;3.28;;;2.85;;
24635;SDS011;12772;49.794;10.024;2023-03-19T07:21:06;3.67;;;2.90;;
24635;SDS011;12772;49.794;10.024;2023-03-19T07:25:08;5.55;;;2.63;;
24635;SDS011;12772;49.794;10.024;2023-03-19T07:29:10;3.17;;;2.90;;
24635;SDS011;12772;49.794;10.024;2023-03-19T07:33:12;3.35;;;3.00;;
24635;SDS011;12772;49.794;10.024;2023-03-19T07:37:14;3.10;;;2.90;;
24635;SDS011;12772;49.794;10.024;2023-03-19T07:41:16;3.40;;;3.10;;
24635;SDS011;12772;49.794;10.024;2023-03-19T07:45:18;3.40;;;3.10;;
24635;SDS011;12772;49.794;10.024;2023-03-19T07:49:21;3.40;;;3.10;;
24635;SDS011;12772;49.794;10.024;2023-03-19T07:53:24;3.90;;;3.13;;
24635;SDS011;12772;49.794;10.024;2023-03-19T07:57:26;4.15;;;3.00;;
24635;SDS011;12772;49.794;10.024;2023-03-19T08:01:28;3.30;;;2.90;;
24635;SDS011;12772;49.794;10.024;2023-03-19T08:05:30;3.78;;;2.80;;
24635;SDS011;12772;49.794;10.024;2023-03-19T08:09:33;2.90;;;2.70;;
24635;SDS011;12772;49.794;10.024;2023-03-19T08:13:35;3.58;;;3.13;;
24635;SDS011;12772;49.794;10.024;2023-03-19T08:17:37;4.43;;;2.80;;
24635;SDS011;12772;49.794;10.024;2023-03-19T08:21:39;6.13;;;3.10;;
24635;SDS011;12772;49.794;10.024;2023-03-19T08:25:41;4.50;;;2.63;;
24635;SDS011;12772;49.794;10.024;2023-03-19T08:29:43;3.40;;;3.10;;
24635;SDS011;12772;49.794;10.024;2023-03-19T08:33:46;4.78;;;2.97;;
24635;SDS011;12772;49.794;10.024;2023-03-19T08:37:48;4.95;;;3.30;;
24635;SDS011;12772;49.794;10.024;2023-03-19T08:41:51;5.80;;;3.53;;
24635;SDS011;12772;49.794;10.024;2023-03-19T08:45:53;3.42;;;3.13;;
24635;SDS011;12772;49.794;10.024;2023-03-19T08:49:55;3.83;;;3.25;;
24635;SDS011;12772;49.794;10.024;2023-03-19T08:53:57;4.05;;;3.40;;
24635;SDS011;12772;49.794;10.024;2023-03-19T08:57:59;3.28;;;2.85;;
24635;SDS011;12772;49.794;10.024;2023-03-19T09:02:02;3.53;;;2.55;;
24635;SDS011;12772;49.794;10.024;2023-03-19T09:06:04;5.20;;;2.78;;
24635;SDS011;12772;49.794;10.024;2023-03-19T09:10:08;4.03;;;2.80;;
24635;SDS011;12772;49.794;10.024;2023-03-19T09:14:11;3.70;;;3.30;;
24635;SDS011;12772;49.794;10.024;2023-03-19T09:18:13;4.68;;;3.33;;
24635;SDS011;12772;49.794;10.024;2023-03-19T09:22:17;2.97;;;2.78;;
24635;SDS011;12772;49.794;10.024;2023-03-19T09:26:19;3.28;;;2.60;;
24635;SDS011;12772;49.794;10.024;2023-03-19T09:30:21;2.50;;;2.30;;
24635;SDS011;12772;49.794;10.024;2023-03-19T09:34:23;3.45;;;2.30;;
24635;SDS011;12772;49.794;10.024;2023-03-19T09:38:25;2.60;;;2.35;;
24635;SDS011;12772;49.794;10.024;2023-03-19T09:42:44;2.50;;;2.30;;
24635;SDS011;12772;49.794;10.024;2023-03-19T09:51:26;3.45;;;2.10;;
24635;SDS011;12772;49.794;10.024;2023-03-19T09:55:43;2.95;;;1.92;;
24635;SDS011;12772;49.794;10.024;2023-03-19T09:59:48;2.55;;;2.00;;
24635;SDS011;12772;49.794;10.024;2023-03-19T10:03:59;2.53;;;2.33;;
24635;SDS011;12772;49.794;10.024;2023-03-19T10:08:27;5.72;;;2.15;;
24635;SDS011;12772;49.794;10.024;2023-03-19T10:13:01;5.38;;;2.42;;
24635;SDS011;12772;49.794;10.024;2023-03-19T10:17:34;2.55;;;2.35;;
24635;SDS011;12772;49.794;10.024;2023-03-19T10:21:51;3.10;;;2.50;;
24635;SDS011;12772;49.794;10.024;2023-03-19T10:25:57;4.68;;;2.33;;
24635;SDS011;12772;49.794;10.024;2023-03-19T10:30:10;3.72;;;2.92;;
24635;SDS011;12772;49.794;10.024;2023-03-19T10:35:00;2.05;;;1.85;;
24635;SDS011;12772;49.794;10.024;2023-03-19T10:38:42;4.10;;;2.03;;
24635;SDS011;12772;49.794;10.024;2023-03-19T10:43:05;1.85;;;1.75;;
24635;SDS011;12772;49.794;10.024;2023-03-19T10:47:16;2.28;;;1.98;;
24635;SDS011;12772;49.794;10.024;2023-03-19T10:51:23;2.63;;;2.00;;
24635;SDS011;12772;49.794;10.024;2023-03-19T10:55:29;2.22;;;2.03;;
24635;SDS011;12772;49.794;10.024;2023-03-19T10:59:36;1.98;;;1.88;;
24635;SDS011;12772;49.794;10.024;2023-03-19T11:03:41;2.15;;;1.90;;
24635;SDS011;12772;49.794;10.024;2023-03-19T11:08:00;2.35;;;2.10;;
24635;SDS011;12772;49.794;10.024;2023-03-19T11:16:23;1.85;;;1.75;;
24635;SDS011;12772;49.794;10.024;2023-03-19T11:20:30;2.35;;;2.15;;
24635;SDS011;12772;49.794;10.024;2023-03-19T11:24:40;2.75;;;2.25;;
24635;SDS011;12772;49.794;10.024;2023-03-19T11:28:49;2.40;;;2.20;;
24635;SDS011;12772;49.794;10.024;2023-03-19T11:33:01;3.30;;;2.30;;
24635;SDS011;12772;49.794;10.024;2023-03-19T11:37:46;2.35;;;2.10;;
24635;SDS011;12772;49.794;10.024;2023-03-19T11:46:41;2.92;;;2.30;;
24635;SDS011;12772;49.794;10.024;2023-03-19T11:59:49;1.92;;;1.73;;
24635;SDS011;12772;49.794;10.024;2023-03-19T12:08:38;2.83;;;2.30;;
24635;SDS011;12772;49.794;10.024;2023-03-19T12:13:06;2.75;;;1.70;;
24635;SDS011;12772;49.794;10.024;2023-03-19T12:22:02;2.22;;;1.67;;
24635;SDS011;12772;49.794;10.024;2023-03-19T12:30:56;1.95;;;1.70;;
24635;SDS011;12772;49.794;10.024;2023-03-19T12:35:14;1.83;;;1.67;;
24635;SDS011;12772;49.794;10.024;2023-03-19T12:39:21;2.95;;;1.67;;
24635;SDS011;12772;49.794;10.024;2023-03-19T12:43:32;2.10;;;2.00;;
24635;SDS011;12772;49.794;10.024;2023-03-19T12:47:41;3.33;;;2.25;;
24635;SDS011;12772;49.794;10.024;2023-03-19T12:51:51;3.78;;;2.00;;
24635;SDS011;12772;49.794;10.024;2023-03-19T12:55:59;1.83;;;1.60;;
24635;SDS011;12772;49.794;10.024;2023-03-19T13:04:32;1.80;;;1.70;;
24635;SDS011;12772;49.794;10.024;2023-03-19T13:08:44;1.70;;;1.60;;
24635;SDS011;12772;49.794;10.024;2023-03-19T13:12:52;2.10;;;1.40;;
24635;SDS011;12772;49.794;10.024;2023-03-19T13:21:21;2.25;;;1.83;;
24635;SDS011;12772;49.794;10.024;2023-03-19T13:25:35;2.75;;;2.08;;
24635;SDS011;12772;49.794;10.024;2023-03-19T13:42:36;2.38;;;1.70;;
24635;SDS011;12772;49.794;10.024;2023-03-19T13:46:41;2.58;;;2.38;;
24635;SDS011;12772;49.794;10.024;2023-03-19T13:59:26;1.88;;;1.70;;
24635;SDS011;12772;49.794;10.024;2023-03-19T14:03:34;2.30;;;2.10;;
24635;SDS011;12772;49.794;10.024;2023-03-19T14:07:37;1.95;;;1.63;;
24635;SDS011;12772;49.794;10.024;2023-03-19T14:11:41;2.10;;;1.90;;
24635;SDS011;12772;49.794;10.024;2023-03-19T14:15:47;2.95;;;2.05;;
24635;SDS011;12772;49.794;10.024;2023-03-19T14:19:51;3.95;;;1.77;;
24635;SDS011;12772;49.794;10.024;2023-03-19T14:23:54;2.85;;;1.63;;
24635;SDS011;12772;49.794;10.024;2023-03-19T14:27:58;2.17;;;1.98;;
24635;SDS011;12772;49.794;10.024;2023-03-19T14:32:05;2.20;;;1.85;;
24635;SDS011;12772;49.794;10.024;2023-03-19T14:36:14;3.83;;;1.90;;
24635;SDS011;12772;49.794;10.024;2023-03-19T14:40:42;2.40;;;1.83;;
24635;SDS011;12772;49.794;10.024;2023-03-19T14:58:12;2.92;;;2.63;;
24635;SDS011;12772;49.794;10.024;2023-03-19T15:02:19;3.75;;;2.28;;
24635;SDS011;12772;49.794;10.024;2023-03-19T15:06:22;1.95;;;1.70;;
24635;SDS011;12772;49.794;10.024;2023-03-19T15:10:28;1.85;;;1.75;;
24635;SDS011;12772;49.794;10.024;2023-03-19T15:14:38;3.08;;;2.15;;
24635;SDS011;12772;49.794;10.024;2023-03-19T15:18:47;2.55;;;2.35;;
24635;SDS011;12772;49.794;10.024;2023-03-19T15:22:59;1.98;;;1.77;;
24635;SDS011;12772;49.794;10.024;2023-03-19T15:27:14;1.77;;;1.67;;
24635;SDS011;12772;49.794;10.024;2023-03-19T15:31:39;3.08;;;1.83;;
24635;SDS011;12772;49.794;10.024;2023-03-19T15:35:46;3.58;;;2.00;;
24635;SDS011;12772;49.794;10.024;2023-03-19T15:39:49;2.85;;;2.17;;
24635;SDS011;12772;49.794;10.024;2023-03-19T15:43:55;4.57;;;1.90;;
24635;SDS011;12772;49.794;10.024;2023-03-19T15:52:42;2.97;;;1.92;;
24635;SDS011;12772;49.794;10.024;2023-03-19T15:56:49;2.95;;;2.67;;
24635;SDS011;12772;49.794;10.024;2023-03-19T16:00:52;2.70;;;2.25;;
24635;SDS011;12772;49.794;10.024;2023-03-19T16:04:56;2.80;;;2.25;;
24635;SDS011;12772;49.794;10.024;2023-03-19T16:09:33;2.20;;;2.00;;
24635;SDS011;12772;49.794;10.024;2023-03-19T16:13:36;8.57;;;5.18;;
24635;SDS011;12772;49.794;10.024;2023-03-19T16:17:39;11.98;;;5.75;;
24635;SDS011;12772;49.794;10.024;2023-03-19T16:21:41;6.85;;;4.47;;
24635;SDS011;12772;49.794;10.024;2023-03-19T16:25:44;4.57;;;3.42;;
24635;SDS011;12772;49.794;10.024;2023-03-19T16:29:48;3.42;;;3.00;;
24635;SDS011;12772;49.794;10.024;2023-03-19T16:33:57;4.07;;;3.08;;
24635;SDS011;12772;49.794;10.024;2023-03-19T16:46:34;2.92;;;2.33;;
24635;SDS011;12772;49.794;10.024;2023-03-19T16:50:37;4.05;;;3.40;;
24635;SDS011;12772;49.794;10.024;2023-03-19T16:54:40;3.13;;;2.70;;
24635;SDS011;12772;49.794;10.024;2023-03-19T16:58:43;2.83;;;2.63;;
24635;SDS011;12772;49.794;10.024;2023-03-19T17:02:46;2.90;;;2.65;;
24635;SDS011;12772;49.794;10.024;2023-03-19T17:06:48;3.30;;;2.85;;
24635;SDS011;12772;49.794;10.024;2023-03-19T17:10:51;4.13;;;3.47;;
24635;SDS011;12772;49.794;10.024;2023-03-19T17:14:54;4.72;;;3.42;;
24635;SDS011;12772;49.794;10.024;2023-03-19T17:18:57;3.05;;;2.67;;
24635;SDS011;12772;49.794;10.024;2023-03-19T17:22:59;3.03;;;2.70;;
24635;SDS011;12772;49.794;10.024;2023-03-19T17:27:02;3.83;;;3.25;;
24635;SDS011;12772;49.794;10.024;2023-03-19T17:31:04;4.13;;;3.08;;
24635;SDS011;12772;49.794;10.024;2023-03-19T17:35:18;3.78;;;2.33;;
24635;SDS011;12772;49.794;10.024;2023-03-19T17:39:22;4.60;;;2.97;;
24635;SDS011;12772;49.794;10.024;2023-03-19T17:43:25;3.25;;;2.47;;
24635;SDS011;12772;49.794;10.024;2023-03-19T17:47:27;3.03;;;2.80;;
24635;SDS011;12772;49.794;10.024;2023-03-19T17:51:29;2.85;;;2.45;;
24635;SDS011;12772;49.794;10.024;2023-03-19T17:55:31;3.00;;;2.65;;
24635;SDS011;12772;49.794;10.024;2023-03-19T17:59:33;3.20;;;2.60;;
24635;SDS011;12772;49.794;10.024;2023-03-19T18:03:35;3.63;;;2.55;;
24635;SDS011;12772;49.794;10.024;2023-03-19T18:07:37;2.72;;;2.53;;
24635;SDS011;12772;49.794;10.024;2023-03-19T18:11:39;4.13;;;3.03;;
24635;SDS011;12772;49.794;10.024;2023-03-19T18:15:42;2.92;;;2.63;;
24635;SDS011;12772;49.794;10.024;2023-03-19T18:19:46;5.65;;;3.85;;
24635;SDS011;12772;49.794;10.024;2023-03-19T18:23:50;4.03;;;3.17;;
24635;SDS011;12772;49.794;10.024;2023-03-19T18:27:52;8.40;;;3.42;;
24635;SDS011;12772;49.794;10.024;2023-03-19T18:31:54;6.20;;;3.38;;
24635;SDS011;12772;49.794;10.024;2023-03-19T18:36:03;3.97;;;2.97;;
24635;SDS011;12772;49.794;10.024;2023-03-19T18:40:05;4.68;;;3.17;;
24635;SDS011;12772;49.794;10.024;2023-03-19T18:44:11;7.60;;;3.65;;
24635;SDS011;12772;49.794;10.024;2023-03-19T18:48:26;4.88;;;3.15;;
24635;SDS011;12772;49.794;10.024;2023-03-19T18:52:30;5.40;;;3.13;;
24635;SDS011;12772;49.794;10.024;2023-03-19T18:56:32;4.70;;;4.13;;
24635;SDS011;12772;49.794;10.024;2023-03-19T19:00:35;5.55;;;4.60;;
24635;SDS011;12772;49.794;10.024;2023-03-19T19:04:38;6.28;;;4.50;;
24635;SDS011;12772;49.794;10.024;2023-03-19T19:08:40;5.93;;;4.10;;
24635;SDS011;12772;49.794;10.024;2023-03-19T19:12:42;4.22;;;3.83;;
24635;SDS011;12772;49.794;10.024;2023-03-19T19:16:47;6.20;;;3.60;;
24635;SDS011;12772;49.794;10.024;2023-03-19T19:20:51;4.28;;;3.83;;
24635;SDS011;12772;49.794;10.024;2023-03-19T19:24:55;4.05;;;3.65;;
24635;SDS011;12772;49.794;10.024;2023-03-19T19:28:57;4.30;;;3.90;;
24635;SDS011;12772;49.794;10.024;2023-03-19T19:33:01;4.60;;;3.70;;
24635;SDS011;12772;49.794;10.024;2023-03-19T19:37:03;4.50;;;3.88;;
24635;SDS011;12772;49.794;10.024;2023-03-19T19:41:08;5.82;;;4.88;;
24635;SDS011;12772;49.794;10.024;2023-03-19T19:49:37;6.85;;;4.82;;
24635;SDS011;12772;49.794;10.024;2023-03-19T19:53:39;6.60;;;4.85;;
24635;SDS011;12772;49.794;10.024;2023-03-19T19:57:41;5.70;;;5.10;;
24635;SDS011;12772;49.794;10.024;2023-03-19T20:01:44;6.68;;;4.97;;
24635;SDS011;12772;49.794;10.024;2023-03-19T20:05:46;5.25;;;4.50;;
24635;SDS011;12772;49.794;10.024;2023-03-19T20:09:49;5.57;;;4.57;;
24635;SDS011;12772;49.794;10.024;2023-03-19T20:13:52;5.07;;;4.60;;
24635;SDS011;12772;49.794;10.024;2023-03-19T20:17:55;9.00;;;5.03;;
24635;SDS011;12772;49.794;10.024;2023-03-19T20:21:57;6.47;;;4.70;;
24635;SDS011;12772;49.794;10.024;2023-03-19T20:25:59;6.25;;;4.82;;
24635;SDS011;12772;49.794;10.024;2023-03-19T20:30:03;4.70;;;4.15;;
24635;SDS011;12772;49.794;10.024;2023-03-19T20:34:11;5.97;;;4.90;;
24635;SDS011;12772;49.794;10.024;2023-03-19T20:38:17;7.32;;;5.65;;
24635;SDS011;12772;49.794;10.024;2023-03-19T20:42:19;6.53;;;5.45;;
24635;SDS011;12772;49.794;10.024;2023-03-19T20:46:21;7.38;;;5.15;;
24635;SDS011;12772;49.794;10.024;2023-03-19T20:50:25;4.95;;;4.22;;
24635;SDS011;12772;49.794;10.024;2023-03-19T20:54:29;5.20;;;4.30;;
24635;SDS011;12772;49.794;10.024;2023-03-19T20:58:32;5.03;;;4.47;;
24635;SDS011;12772;49.794;10.024;2023-03-19T21:02:36;6.30;;;4.50;;
24635;SDS011;12772;49.794;10.024;2023-03-19T21:06:38;4.03;;;3.70;;
24635;SDS011;12772;49.794;10.024;2023-03-19T21:10:41;6.13;;;4.80;;
24635;SDS011;12772;49.794;10.024;2023-03-19T21:14:44;4.95;;;4.13;;
24635;SDS011;12772;49.794;10.024;2023-03-19T21:18:46;6.90;;;5.13;;
24635;SDS011;12772;49.794;10.024;2023-03-19T21:22:50;5.35;;;4.47;;
24635;SDS011;12772;49.794;10.024;2023-03-19T21:26:55;8.48;;;6.57;;
24635;SDS011;12772;49.794;10.024;2023-03-19T21:30:57;6.60;;;5.80;;
24635;SDS011;12772;49.794;10.024;2023-03-19T21:34:59;6.75;;;6.00;;
24635;SDS011;12772;49.794;10.024;2023-03-19T21:39:01;6.70;;;5.80;;
24635;SDS011;12772;49.794;10.024;2023-03-19T21:43:03;6.20;;;5.60;;
24635;SDS011;12772;49.794;10.024;2023-03-19T21:47:09;7.70;;;5.63;;
24635;SDS011;12772;49.794;10.024;2023-03-19T21:51:16;6.65;;;5.95;;
24635;SDS011;12772;49.794;10.024;2023-03-19T21:55:18;6.15;;;5.20;;
24635;SDS011;12772;49.794;10.024;2023-03-19T21:59:21;7.57;;;5.13;;
24635;SDS011;12772;49.794;10.024;2023-03-19T22:03:28;7.72;;;5.70;;
24635;SDS011;12772;49.794;10.024;2023-03-19T22:07:30;6.05;;;4.90;;
24635;SDS011;12772;49.794;10.024;2023-03-19T22:11:33;5.20;;;4.50;;
24635;SDS011;12772;49.794;10.024;2023-03-19T22:15:37;4.90;;;4.28;;
24635;SDS011;12772;49.794;10.024;2023-03-19T22:19:39;5.03;;;4.53;;
24635;SDS011;12772;49.794;10.024;2023-03-19T22:23:42;5.28;;;4.78;;
24635;SDS011;12772;49.794;10.024;2023-03-19T22:27:46;4.85;;;4.32;;
24635;SDS011;12772;49.794;10.024;2023-03-19T22:31:50;5.80;;;4.82;;
24635;SDS011;12772;49.794;10.024;2023-03-19T22:35:53;5.05;;;4.55;;
24635;SDS011;12772;49.794;10.024;2023-03-19T22:39:55;7.60;;;5.10;;
24635;SDS011;12772;49.794;10.024;2023-03-19T22:43:57;6.07;;;5.20;;
24635;SDS011;12772;49.794;10.024;2023-03-19T22:48:01;5.45;;;4.93;;
24635;SDS011;12772;49.794;10.024;2023-03-19T22:52:03;5.93;;;5.32;;
24635;SDS011;12772;49.794;10.024;2023-03-19T22:56:05;5.63;;;4.18;;
24635;SDS011;12772;49.794;10.024;2023-03-19T23:00:11;5.70;;;5.10;;
24635;SDS011;12772;49.794;10.024;2023-03-19T23:04:26;5.50;;;4.68;;
24635;SDS011;12772;49.794;10.024;2023-03-19T23:08:30;6.53;;;5.22;;
24635;SDS011;12772;49.794;10.024;2023-03-19T23:12:32;4.93;;;4.47;;
24635;SDS011;12772;49.794;10.024;2023-03-19T23:16:34;7.03;;;4.90;;
24635;SDS011;12772;49.794;10.024;2023-03-19T23:20:38;5.78;;;5.28;;
24635;SDS011;12772;49.794;10.024;2023-03-19T23:24:41;6.22;;;5.30;;
24635;SDS011;12772;49.794;10.024;2023-03-19T23:28:43;5.90;;;5.07;;
24635;SDS011;12772;49.794;10.024;2023-03-19T23:32:46;5.28;;;4.78;;
24635;SDS011;12772;49.794;10.024;2023-03-19T23:36:48;5.97;;;4.85;;
24635;SDS011;12772;49.794;10.024;2023-03-19T23:40:51;5.68;;;5.18;;
24635;SDS011;12772;49.794;10.024;2023-03-19T23:44:53;5.80;;;4.97;;
24635;SDS011;12772;49.794;10.024;2023-03-19T23:48:58;5.63;;;4.93;;
24635;SDS011;12772;49.794;10.024;2023-03-19T23:53:01;4.70;;;4.30;;
24635;SDS011;12772;49.794;10.024;2023-03-19T23:57:07;5.53;;;4.93;;
